Hovedside
METAR-TAF:

METAR-TAF

Lufthavner :

Kristianstad, Sverige

breddegrad: 55-55N, lengdegrad: 014-05E, høyde over havet: 23 m

Gjeldene værobservasjon

Denne rapporten ble laget for 17 minutter siden, klokken 01:20 UTC
Vind 11 kt fra Nord
Temperatur 2°C
Trykk 1006 hPa
Sikt 10 km eller mer

METAR: ESMK 110120Z AUTO 36011KT 9999 FEW014/// SCT019/// BKN032/// 02/// Q1006 RESHUP

Tid: 02:37 (01:37 UTC)

Varsel

Denne rapporten ble laget for 8 timer og 25 minutter siden, klokken 17:12 UTC
Varsel gyldig fra 10. klokken 18 UTC til 10. klokken 21 UTC
Vind 8 kt fra Vest-nordvest
Sikt 10 km eller mer
Brutte skyer i en høyde av 3000 ft

TAF: ESMK 101712Z 1018/1021 29008KT 9999 BKN030

Værobservasjoner og værvarsel for over 4000 flyplasser (METAR- og TAF-rapporter).

Tilgjengelige stasjoner er representert av de røde og gule prikkene på kartet.

Hold musepekeren over prikken for å se navnet på stasjonen.

Klikk så for å se værobservasjoner og -varsler.

For å forandre kartet kan du klikke på den grønne knappen med svart kryss for å zoome inn, på den grønne knappen med strek for å zoome ut, eller på de grønne pilene for å se tilstøtende kart.


METAR-TAF: